sensor_id;sensor_type;location;lat;lon;timestamp;pressure;altitude;pressure_sealevel;temperature;humidity
6680;BME280;3376;42.664;23.346;2023-07-20T00:02:22;94266.41;;;23.72;78.51
6680;BME280;3376;42.664;23.346;2023-07-20T00:04:48;94276.19;;;23.76;72.53
6680;BME280;3376;42.664;23.346;2023-07-20T00:07:15;94278.06;;;23.81;73.08
6680;BME280;3376;42.664;23.346;2023-07-20T00:09:43;94267.72;;;23.79;72.15
6680;BME280;3376;42.664;23.346;2023-07-20T00:12:10;94234.38;;;23.63;72.04
6680;BME280;3376;42.664;23.346;2023-07-20T00:14:37;94256.09;;;23.80;72.62
6680;BME280;3376;42.664;23.346;2023-07-20T00:17:04;94265.59;;;23.76;73.87
6680;BME280;3376;42.664;23.346;2023-07-20T00:19:31;94261.38;;;23.70;75.40
6680;BME280;3376;42.664;23.346;2023-07-20T00:21:58;94275.66;;;23.79;74.37
6680;BME280;3376;42.664;23.346;2023-07-20T00:24:24;94273.00;;;23.84;77.03
6680;BME280;3376;42.664;23.346;2023-07-20T00:26:52;94276.72;;;23.83;76.05
6680;BME280;3376;42.664;23.346;2023-07-20T00:29:19;94186.22;;;23.36;77.27
6680;BME280;3376;42.664;23.346;2023-07-20T00:31:46;94270.13;;;23.91;78.24
6680;BME280;3376;42.664;23.346;2023-07-20T00:34:13;94235.19;;;23.79;78.41
6680;BME280;3376;42.664;23.346;2023-07-20T00:36:39;94263.75;;;23.92;77.29
6680;BME280;3376;42.664;23.346;2023-07-20T00:39:06;94274.09;;;23.88;78.46
6680;BME280;3376;42.664;23.346;2023-07-20T00:41:33;94262.44;;;23.84;81.13
6680;BME280;3376;42.664;23.346;2023-07-20T00:44:01;94261.38;;;23.80;81.25
6680;BME280;3376;42.664;23.346;2023-07-20T00:46:28;94259.25;;;23.77;82.77
6680;BME280;3376;42.664;23.346;2023-07-20T00:48:57;94251.06;;;23.74;84.25
6680;BME280;3376;42.664;23.346;2023-07-20T00:51:25;94253.97;;;23.72;83.68
6680;BME280;3376;42.664;23.346;2023-07-20T00:53:53;94249.19;;;23.74;82.04
6680;BME280;3376;42.664;23.346;2023-07-20T00:56:20;94249.44;;;23.73;82.52
6680;BME280;3376;42.664;23.346;2023-07-20T00:58:48;94207.66;;;23.50;83.07
6680;BME280;3376;42.664;23.346;2023-07-20T01:01:16;94235.69;;;23.61;83.68
6680;BME280;3376;42.664;23.346;2023-07-20T01:03:43;94240.69;;;23.57;84.25
6680;BME280;3376;42.664;23.346;2023-07-20T01:06:19;94240.16;;;23.55;84.99
6680;BME280;3376;42.664;23.346;2023-07-20T01:08:57;94231.38;;;23.35;86.12
6680;BME280;3376;42.664;23.346;2023-07-20T01:11:33;94124.63;;;22.54;87.59
6680;BME280;3376;42.664;23.346;2023-07-20T01:14:03;94255.34;;;23.13;88.07
6680;BME280;3376;42.664;23.346;2023-07-20T01:16:31;94263.81;;;23.15;89.55
6680;BME280;3376;42.664;23.346;2023-07-20T01:18:59;94270.19;;;23.14;89.98
6680;BME280;3376;42.664;23.346;2023-07-20T01:21:31;94253.19;;;22.95;91.26
6680;BME280;3376;42.664;23.346;2023-07-20T01:24:29;94251.84;;;22.92;91.49
6680;BME280;3376;42.664;23.346;2023-07-20T01:30:46;94242.91;;;22.98;90.70
6680;BME280;3376;42.664;23.346;2023-07-20T01:33:19;94254.75;;;22.91;90.84
6680;BME280;3376;42.664;23.346;2023-07-20T01:35:58;94257.34;;;22.86;90.98
6680;BME280;3376;42.664;23.346;2023-07-20T01:38:26;94252.06;;;22.81;91.20
6680;BME280;3376;42.664;23.346;2023-07-20T01:40:53;94247.56;;;22.81;90.14
6680;BME280;3376;42.664;23.346;2023-07-20T01:43:20;94254.16;;;22.79;90.50
6680;BME280;3376;42.664;23.346;2023-07-20T01:45:46;94255.19;;;22.73;89.41
6680;BME280;3376;42.664;23.346;2023-07-20T01:48:13;94245.91;;;22.70;92.82
6680;BME280;3376;42.664;23.346;2023-07-20T01:50:41;94236.66;;;22.68;91.28
6680;BME280;3376;42.664;23.346;2023-07-20T01:53:08;94213.03;;;22.51;90.16
6680;BME280;3376;42.664;23.346;2023-07-20T01:55:35;94246.69;;;22.61;91.85
6680;BME280;3376;42.664;23.346;2023-07-20T01:58:02;94223.69;;;22.61;91.84
6680;BME280;3376;42.664;23.346;2023-07-20T02:00:29;94238.56;;;22.77;91.15
6680;BME280;3376;42.664;23.346;2023-07-20T02:02:55;94248.22;;;22.57;92.16
6680;BME280;3376;42.664;23.346;2023-07-20T02:05:22;94235.53;;;22.54;92.71
6680;BME280;3376;42.664;23.346;2023-07-20T02:07:50;94237.50;;;22.32;94.10
6680;BME280;3376;42.664;23.346;2023-07-20T02:10:17;94232.38;;;22.20;95.10
6680;BME280;3376;42.664;23.346;2023-07-20T02:12:44;94231.47;;;22.04;96.83
6680;BME280;3376;42.664;23.346;2023-07-20T02:15:11;94233.84;;;22.06;98.06
6680;BME280;3376;42.664;23.346;2023-07-20T02:17:38;94236.44;;;22.01;99.22
6680;BME280;3376;42.664;23.346;2023-07-20T02:20:07;94222.25;;;22.07;99.53
6680;BME280;3376;42.664;23.346;2023-07-20T02:22:35;94237.88;;;22.13;100.00
6680;BME280;3376;42.664;23.346;2023-07-20T02:25:04;94248.72;;;22.17;100.00
6680;BME280;3376;42.664;23.346;2023-07-20T02:27:32;94237.19;;;22.28;100.00
6680;BME280;3376;42.664;23.346;2023-07-20T02:29:59;94221.06;;;22.25;99.75
6680;BME280;3376;42.664;23.346;2023-07-20T02:32:27;94232.91;;;22.22;99.94
6680;BME280;3376;42.664;23.346;2023-07-20T02:34:54;94235.59;;;22.27;100.00
6680;BME280;3376;42.664;23.346;2023-07-20T02:37:21;94233.78;;;22.33;99.98
6680;BME280;3376;42.664;23.346;2023-07-20T02:39:48;94233.56;;;22.39;100.00
6680;BME280;3376;42.664;23.346;2023-07-20T02:42:16;94173.78;;;22.18;99.08
6680;BME280;3376;42.664;23.346;2023-07-20T02:44:43;94220.47;;;22.54;98.04
6680;BME280;3376;42.664;23.346;2023-07-20T02:47:09;94201.22;;;22.54;97.22
6680;BME280;3376;42.664;23.346;2023-07-20T02:49:36;94202.16;;;22.43;98.21
6680;BME280;3376;42.664;23.346;2023-07-20T02:52:03;94202.41;;;22.36;98.71
6680;BME280;3376;42.664;23.346;2023-07-20T02:54:30;94206.34;;;22.34;99.46
6680;BME280;3376;42.664;23.346;2023-07-20T02:56:57;94200.78;;;22.35;100.00
6680;BME280;3376;42.664;23.346;2023-07-20T02:59:25;94206.13;;;22.40;99.21
6680;BME280;3376;42.664;23.346;2023-07-20T03:01:52;94213.25;;;22.40;99.44
6680;BME280;3376;42.664;23.346;2023-07-20T03:04:19;94214.25;;;22.34;99.11
6680;BME280;3376;42.664;23.346;2023-07-20T03:06:47;94211.00;;;22.22;100.00
6680;BME280;3376;42.664;23.346;2023-07-20T03:09:13;94217.91;;;22.28;100.00
6680;BME280;3376;42.664;23.346;2023-07-20T03:11:41;94201.75;;;22.19;100.00
6680;BME280;3376;42.664;23.346;2023-07-20T03:14:07;94118.28;;;21.66;100.00
6680;BME280;3376;42.664;23.346;2023-07-20T03:16:37;94222.88;;;22.19;100.00
6680;BME280;3376;42.664;23.346;2023-07-20T03:19:04;94226.28;;;22.14;100.00
6680;BME280;3376;42.664;23.346;2023-07-20T03:21:30;94228.97;;;22.20;100.00
6680;BME280;3376;42.664;23.346;2023-07-20T03:23:57;94226.41;;;22.35;100.00
6680;BME280;3376;42.664;23.346;2023-07-20T03:26:24;94225.84;;;22.28;99.81
6680;BME280;3376;42.664;23.346;2023-07-20T03:28:51;94226.81;;;22.16;100.00
6680;BME280;3376;42.664;23.346;2023-07-20T03:31:17;94232.91;;;22.22;100.00
6680;BME280;3376;42.664;23.346;2023-07-20T03:33:46;94236.91;;;22.25;100.00
6680;BME280;3376;42.664;23.346;2023-07-20T03:36:12;94234.78;;;22.27;100.00
6680;BME280;3376;42.664;23.346;2023-07-20T03:38:39;94226.84;;;22.22;100.00
6680;BME280;3376;42.664;23.346;2023-07-20T03:41:06;94225.31;;;22.31;100.00
6680;BME280;3376;42.664;23.346;2023-07-20T03:43:32;94229.56;;;22.32;100.00
6680;BME280;3376;42.664;23.346;2023-07-20T03:45:59;94229.03;;;22.30;100.00
6680;BME280;3376;42.664;23.346;2023-07-20T03:48:26;94227.41;;;22.29;100.00
6680;BME280;3376;42.664;23.346;2023-07-20T03:50:54;94233.28;;;22.36;100.00
6680;BME280;3376;42.664;23.346;2023-07-20T03:53:21;94238.59;;;22.41;100.00
6680;BME280;3376;42.664;23.346;2023-07-20T03:55:48;94219.63;;;22.44;100.00
6680;BME280;3376;42.664;23.346;2023-07-20T03:58:16;94242.84;;;22.47;98.98
6680;BME280;3376;42.664;23.346;2023-07-20T04:00:44;94237.84;;;22.45;99.50
6680;BME280;3376;42.664;23.346;2023-07-20T04:03:11;94240.19;;;22.42;98.61
6680;BME280;3376;42.664;23.346;2023-07-20T04:05:38;94237.06;;;22.50;98.62
6680;BME280;3376;42.664;23.346;2023-07-20T04:08:06;94230.03;;;22.60;98.65
6680;BME280;3376;42.664;23.346;2023-07-20T04:10:33;94230.59;;;22.67;98.15
6680;BME280;3376;42.664;23.346;2023-07-20T04:13:00;94223.69;;;22.66;97.64
6680;BME280;3376;42.664;23.346;2023-07-20T04:15:27;94229.84;;;22.77;97.31
6680;BME280;3376;42.664;23.346;2023-07-20T04:17:54;94206.84;;;22.72;97.21
6680;BME280;3376;42.664;23.346;2023-07-20T04:20:21;94234.72;;;23.00;97.50
6680;BME280;3376;42.664;23.346;2023-07-20T04:22:48;94224.44;;;23.13;95.35
6680;BME280;3376;42.664;23.346;2023-07-20T04:25:17;94221.28;;;23.21;93.15
6680;BME280;3376;42.664;23.346;2023-07-20T04:27:44;94218.41;;;23.28;92.00
6680;BME280;3376;42.664;23.346;2023-07-20T04:30:11;94227.44;;;23.42;90.85
6680;BME280;3376;42.664;23.346;2023-07-20T04:32:38;94224.28;;;23.50;89.67
6680;BME280;3376;42.664;23.346;2023-07-20T04:35:17;94224.06;;;23.62;88.54
6680;BME280;3376;42.664;23.346;2023-07-20T04:37:44;94222.72;;;23.69;86.80
6680;BME280;3376;42.664;23.346;2023-07-20T04:40:12;94217.97;;;23.81;86.65
6680;BME280;3376;42.664;23.346;2023-07-20T04:42:40;94221.44;;;23.87;85.50
6680;BME280;3376;42.664;23.346;2023-07-20T04:45:08;94203.72;;;23.87;85.56
6680;BME280;3376;42.664;23.346;2023-07-20T04:47:35;94203.97;;;23.96;83.74
6680;BME280;3376;42.664;23.346;2023-07-20T04:50:01;94220.41;;;24.13;82.89
6680;BME280;3376;42.664;23.346;2023-07-20T04:52:28;94213.75;;;24.20;82.23
6680;BME280;3376;42.664;23.346;2023-07-20T04:54:55;94219.56;;;24.27;80.81
6680;BME280;3376;42.664;23.346;2023-07-20T04:57:23;94225.94;;;24.36;80.71
6680;BME280;3376;42.664;23.346;2023-07-20T04:59:51;94217.44;;;24.34;80.40
6680;BME280;3376;42.664;23.346;2023-07-20T05:02:18;94219.56;;;24.48;79.86
6680;BME280;3376;42.664;23.346;2023-07-20T05:04:45;94211.03;;;24.61;79.40
6680;BME280;3376;42.664;23.346;2023-07-20T05:07:12;94217.13;;;24.66;79.13
6680;BME280;3376;42.664;23.346;2023-07-20T05:09:38;94206.28;;;24.63;78.90
6680;BME280;3376;42.664;23.346;2023-07-20T05:12:06;94218.97;;;24.81;78.39
6680;BME280;3376;42.664;23.346;2023-07-20T05:14:33;94219.47;;;24.88;78.02
6680;BME280;3376;42.664;23.346;2023-07-20T05:17:01;94226.31;;;25.04;76.93
6680;BME280;3376;42.664;23.346;2023-07-20T05:19:28;94224.34;;;25.24;76.15
6680;BME280;3376;42.664;23.346;2023-07-20T05:21:54;94225.38;;;25.38;74.82
6680;BME280;3376;42.664;23.346;2023-07-20T05:24:21;94219.78;;;25.45;74.41
6680;BME280;3376;42.664;23.346;2023-07-20T05:26:48;94204.94;;;25.34;74.78
6680;BME280;3376;42.664;23.346;2023-07-20T05:29:15;94226.84;;;25.54;73.48
6680;BME280;3376;42.664;23.346;2023-07-20T05:31:42;94200.97;;;25.31;71.64
6680;BME280;3376;42.664;23.346;2023-07-20T05:34:10;94228.78;;;25.44;71.29
6680;BME280;3376;42.664;23.346;2023-07-20T05:36:36;94232.47;;;25.48;72.36
6680;BME280;3376;42.664;23.346;2023-07-20T05:39:20;94235.53;;;25.70;73.68
6680;BME280;3376;42.664;23.346;2023-07-20T05:41:47;94233.84;;;25.84;71.71
6680;BME280;3376;42.664;23.346;2023-07-20T05:44:14;94239.63;;;25.91;70.75
6680;BME280;3376;42.664;23.346;2023-07-20T05:46:41;94248.28;;;26.12;68.90
6680;BME280;3376;42.664;23.346;2023-07-20T05:49:07;94238.88;;;26.19;66.83
6680;BME280;3376;42.664;23.346;2023-07-20T05:51:35;94250.19;;;26.35;68.71
6680;BME280;3376;42.664;23.346;2023-07-20T05:54:02;94246.63;;;26.49;67.92
6680;BME280;3376;42.664;23.346;2023-07-20T05:56:29;94253.16;;;26.57;70.04
6680;BME280;3376;42.664;23.346;2023-07-20T05:58:56;94255.63;;;26.48;66.75
6680;BME280;3376;42.664;23.346;2023-07-20T06:01:22;94246.84;;;26.53;68.53
6680;BME280;3376;42.664;23.346;2023-07-20T06:03:52;94238.75;;;26.68;69.37
6680;BME280;3376;42.664;23.346;2023-07-20T06:06:19;94224.91;;;26.66;72.11
6680;BME280;3376;42.664;23.346;2023-07-20T06:08:47;94239.66;;;26.82;71.59
6680;BME280;3376;42.664;23.346;2023-07-20T06:11:14;94243.72;;;26.98;70.12
6680;BME280;3376;42.664;23.346;2023-07-20T06:13:41;94241.84;;;27.22;69.85
6680;BME280;3376;42.664;23.346;2023-07-20T06:16:09;94239.88;;;27.33;67.66
6680;BME280;3376;42.664;23.346;2023-07-20T06:18:35;94244.38;;;27.37;67.40
6680;BME280;3376;42.664;23.346;2023-07-20T06:21:02;94237.00;;;27.48;68.15
6680;BME280;3376;42.664;23.346;2023-07-20T06:23:29;94210.06;;;27.54;65.16
6680;BME280;3376;42.664;23.346;2023-07-20T06:25:57;94225.22;;;27.72;64.09
6680;BME280;3376;42.664;23.346;2023-07-20T06:28:24;94227.09;;;27.72;63.61
6680;BME280;3376;42.664;23.346;2023-07-20T06:30:50;94215.25;;;27.46;63.10
6680;BME280;3376;42.664;23.346;2023-07-20T06:33:17;94211.94;;;27.54;64.01
6680;BME280;3376;42.664;23.346;2023-07-20T06:35:44;94221.56;;;27.68;62.47
6680;BME280;3376;42.664;23.346;2023-07-20T06:38:11;94226.03;;;27.73;62.35
6680;BME280;3376;42.664;23.346;2023-07-20T06:40:38;94215.66;;;27.71;63.46
6680;BME280;3376;42.664;23.346;2023-07-20T06:43:06;94220.63;;;27.78;62.14
6680;BME280;3376;42.664;23.346;2023-07-20T06:45:32;94228.84;;;28.00;61.04
6680;BME280;3376;42.664;23.346;2023-07-20T06:47:59;94230.59;;;28.23;59.88
6680;BME280;3376;42.664;23.346;2023-07-20T06:50:26;94232.94;;;28.43;59.36
6680;BME280;3376;42.664;23.346;2023-07-20T06:52:53;94220.97;;;28.41;59.36
6680;BME280;3376;42.664;23.346;2023-07-20T06:55:20;94223.84;;;28.44;57.94
6680;BME280;3376;42.664;23.346;2023-07-20T06:57:46;94225.16;;;28.47;58.73
6680;BME280;3376;42.664;23.346;2023-07-20T07:00:15;94239.41;;;28.69;58.75
6680;BME280;3376;42.664;23.346;2023-07-20T07:02:42;94247.69;;;28.68;58.82
6680;BME280;3376;42.664;23.346;2023-07-20T07:05:08;94244.88;;;28.92;57.18
6680;BME280;3376;42.664;23.346;2023-07-20T07:07:35;94257.66;;;29.22;55.35
6680;BME280;3376;42.664;23.346;2023-07-20T07:10:02;94244.50;;;29.39;54.48
6680;BME280;3376;42.664;23.346;2023-07-20T07:12:30;94253.91;;;29.36;55.41
6680;BME280;3376;42.664;23.346;2023-07-20T07:14:57;94258.94;;;29.11;57.14
6680;BME280;3376;42.664;23.346;2023-07-20T07:17:25;94270.06;;;28.85;56.98
6680;BME280;3376;42.664;23.346;2023-07-20T07:19:53;94280.47;;;28.55;58.21
6680;BME280;3376;42.664;23.346;2023-07-20T07:22:20;94290.97;;;28.46;58.55
6680;BME280;3376;42.664;23.346;2023-07-20T07:24:46;94296.28;;;28.33;59.21
6680;BME280;3376;42.664;23.346;2023-07-20T07:27:13;94196.75;;;27.73;59.58
6680;BME280;3376;42.664;23.346;2023-07-20T07:29:41;94303.03;;;28.62;58.88
6680;BME280;3376;42.664;23.346;2023-07-20T07:32:09;94287.59;;;28.59;59.07
6680;BME280;3376;42.664;23.346;2023-07-20T07:34:38;94292.06;;;28.64;58.90
6680;BME280;3376;42.664;23.346;2023-07-20T07:37:05;94287.72;;;28.81;58.29
6680;BME280;3376;42.664;23.346;2023-07-20T07:39:31;94283.22;;;28.96;57.64
6680;BME280;3376;42.664;23.346;2023-07-20T07:41:58;94280.66;;;29.04;57.13
6680;BME280;3376;42.664;23.346;2023-07-20T07:44:25;94274.88;;;29.16;56.69
6680;BME280;3376;42.664;23.346;2023-07-20T07:46:52;94281.88;;;29.39;55.52
6680;BME280;3376;42.664;23.346;2023-07-20T07:49:19;94275.25;;;29.50;56.15
6680;BME280;3376;42.664;23.346;2023-07-20T07:51:47;94269.59;;;29.78;54.93
6680;BME280;3376;42.664;23.346;2023-07-20T07:54:14;94236.03;;;29.86;54.44
6680;BME280;3376;42.664;23.346;2023-07-20T07:56:41;94241.59;;;29.98;53.93
6680;BME280;3376;42.664;23.346;2023-07-20T07:59:08;94244.22;;;29.89;54.45
6680;BME280;3376;42.664;23.346;2023-07-20T08:01:34;94251.38;;;29.80;54.93
6680;BME280;3376;42.664;23.346;2023-07-20T08:04:02;94240.66;;;29.94;53.24
6680;BME280;3376;42.664;23.346;2023-07-20T08:06:29;94248.41;;;29.82;53.93
6680;BME280;3376;42.664;23.346;2023-07-20T08:08:58;94265.56;;;30.03;54.59
6680;BME280;3376;42.664;23.346;2023-07-20T08:11:24;94273.59;;;30.03;55.71
6680;BME280;3376;42.664;23.346;2023-07-20T08:13:51;94294.22;;;30.11;55.12
6680;BME280;3376;42.664;23.346;2023-07-20T08:16:18;94292.75;;;30.05;54.71
6680;BME280;3376;42.664;23.346;2023-07-20T08:18:45;94311.47;;;30.05;54.77
6680;BME280;3376;42.664;23.346;2023-07-20T08:21:12;94299.00;;;30.00;54.84
6680;BME280;3376;42.664;23.346;2023-07-20T08:23:38;94298.31;;;29.95;55.29
6680;BME280;3376;42.664;23.346;2023-07-20T08:26:06;94137.78;;;28.98;55.66
6680;BME280;3376;42.664;23.346;2023-07-20T08:28:33;94311.00;;;29.89;57.45
6680;BME280;3376;42.664;23.346;2023-07-20T08:31:00;94295.88;;;29.85;57.03
6680;BME280;3376;42.664;23.346;2023-07-20T08:33:28;94300.44;;;29.71;57.50
6680;BME280;3376;42.664;23.346;2023-07-20T08:35:58;94299.94;;;29.55;57.07
6680;BME280;3376;42.664;23.346;2023-07-20T08:38:26;94304.03;;;29.26;56.93
6680;BME280;3376;42.664;23.346;2023-07-20T08:40:53;94301.94;;;29.23;57.18
6680;BME280;3376;42.664;23.346;2023-07-20T08:43:22;94297.78;;;29.44;55.89
6680;BME280;3376;42.664;23.346;2023-07-20T08:45:52;94298.50;;;29.36;53.53
6680;BME280;3376;42.664;23.346;2023-07-20T08:48:20;94300.06;;;29.37;54.23
6680;BME280;3376;42.664;23.346;2023-07-20T08:50:47;94294.13;;;29.26;51.41
6680;BME280;3376;42.664;23.346;2023-07-20T08:53:15;94306.41;;;29.41;51.55
6680;BME280;3376;42.664;23.346;2023-07-20T08:55:44;94291.19;;;29.41;50.73
6680;BME280;3376;42.664;23.346;2023-07-20T08:58:12;94287.31;;;29.47;50.08
6680;BME280;3376;42.664;23.346;2023-07-20T09:00:41;94288.22;;;29.43;49.82
6680;BME280;3376;42.664;23.346;2023-07-20T09:03:08;94288.69;;;29.58;49.13
6680;BME280;3376;42.664;23.346;2023-07-20T09:05:35;94282.75;;;29.75;49.35
6680;BME280;3376;42.664;23.346;2023-07-20T09:08:02;94281.66;;;29.49;49.31
6680;BME280;3376;42.664;23.346;2023-07-20T09:10:29;94274.94;;;29.51;50.03
6680;BME280;3376;42.664;23.346;2023-07-20T09:12:56;94270.97;;;29.62;48.30
6680;BME280;3376;42.664;23.346;2023-07-20T09:15:23;94287.19;;;29.52;48.49
6680;BME280;3376;42.664;23.346;2023-07-20T09:17:51;94277.72;;;29.73;47.65
6680;BME280;3376;42.664;23.346;2023-07-20T09:20:20;94270.28;;;30.06;48.75
6680;BME280;3376;42.664;23.346;2023-07-20T09:22:47;94269.56;;;30.14;47.66
6680;BME280;3376;42.664;23.346;2023-07-20T09:25:17;94268.88;;;30.44;46.48
6680;BME280;3376;42.664;23.346;2023-07-20T09:27:45;94267.03;;;30.53;46.40
6680;BME280;3376;42.664;23.346;2023-07-20T09:30:14;94232.78;;;30.33;46.41
6680;BME280;3376;42.664;23.346;2023-07-20T09:32:42;94260.13;;;30.52;47.26
6680;BME280;3376;42.664;23.346;2023-07-20T09:35:14;94223.06;;;30.37;44.42
6680;BME280;3376;42.664;23.346;2023-07-20T09:37:46;94262.59;;;30.71;43.99
6680;BME280;3376;42.664;23.346;2023-07-20T09:40:17;94269.00;;;30.83;44.35
6680;BME280;3376;42.664;23.346;2023-07-20T09:42:44;94255.25;;;31.07;43.80
6680;BME280;3376;42.664;23.346;2023-07-20T09:45:11;94240.88;;;31.03;42.85
6680;BME280;3376;42.664;23.346;2023-07-20T09:47:38;94254.78;;;31.13;42.18
6680;BME280;3376;42.664;23.346;2023-07-20T09:50:06;94247.91;;;31.21;41.42
6680;BME280;3376;42.664;23.346;2023-07-20T09:52:40;94259.81;;;31.15;40.38
6680;BME280;3376;42.664;23.346;2023-07-20T09:55:10;94244.09;;;31.22;42.06
6680;BME280;3376;42.664;23.346;2023-07-20T09:57:38;94227.47;;;31.42;42.52
6680;BME280;3376;42.664;23.346;2023-07-20T10:00:06;94218.53;;;31.47;40.90
6680;BME280;3376;42.664;23.346;2023-07-20T10:02:42;94202.38;;;31.21;41.38
6680;BME280;3376;42.664;23.346;2023-07-20T10:05:11;94220.09;;;31.00;41.07
6680;BME280;3376;42.664;23.346;2023-07-20T10:07:44;94218.78;;;30.58;40.75
6680;BME280;3376;42.664;23.346;2023-07-20T10:10:14;94175.66;;;30.29;39.30
6680;BME280;3376;42.664;23.346;2023-07-20T10:12:42;94225.84;;;30.54;39.66
6680;BME280;3376;42.664;23.346;2023-07-20T10:15:11;94226.09;;;30.44;41.54
6680;BME280;3376;42.664;23.346;2023-07-20T10:17:48;94223.88;;;30.46;41.93
6680;BME280;3376;42.664;23.346;2023-07-20T10:20:20;94214.91;;;30.42;41.62
6680;BME280;3376;42.664;23.346;2023-07-20T10:22:52;94239.84;;;30.60;42.06
6680;BME280;3376;42.664;23.346;2023-07-20T10:25:20;94244.66;;;30.71;41.50
6680;BME280;3376;42.664;23.346;2023-07-20T10:27:47;94247.28;;;30.63;42.15
6680;BME280;3376;42.664;23.346;2023-07-20T10:30:14;94245.09;;;30.65;42.09
6680;BME280;3376;42.664;23.346;2023-07-20T10:32:42;94233.44;;;30.61;41.81
6680;BME280;3376;42.664;23.346;2023-07-20T10:35:13;94224.13;;;30.58;41.15
6680;BME280;3376;42.664;23.346;2023-07-20T10:37:51;94121.50;;;30.15;41.19
6680;BME280;3376;42.664;23.346;2023-07-20T10:40:29;94228.94;;;31.00;40.27
6680;BME280;3376;42.664;23.346;2023-07-20T10:42:59;94231.13;;;30.98;41.12
6680;BME280;3376;42.664;23.346;2023-07-20T10:45:42;94212.09;;;31.08;41.34
6680;BME280;3376;42.664;23.346;2023-07-20T10:48:16;94186.63;;;31.20;40.91
6680;BME280;3376;42.664;23.346;2023-07-20T10:50:45;94159.88;;;31.20;41.72
6680;BME280;3376;42.664;23.346;2023-07-20T10:53:14;94148.22;;;31.33;44.05
6680;BME280;3376;42.664;23.346;2023-07-20T10:55:41;94181.09;;;31.16;44.55
6680;BME280;3376;42.664;23.346;2023-07-20T10:58:10;94192.72;;;31.11;43.71
6680;BME280;3376;42.664;23.346;2023-07-20T11:00:38;94185.34;;;31.08;44.24
6680;BME280;3376;42.664;23.346;2023-07-20T11:03:27;94167.66;;;30.90;42.73
6680;BME280;3376;42.664;23.346;2023-07-20T11:05:56;94142.44;;;30.83;42.44
6680;BME280;3376;42.664;23.346;2023-07-20T11:11:25;94157.34;;;31.15;42.34
6680;BME280;3376;42.664;23.346;2023-07-20T11:13:57;94147.63;;;31.44;42.36
6680;BME280;3376;42.664;23.346;2023-07-20T11:16:40;94146.53;;;31.54;42.09
6680;BME280;3376;42.664;23.346;2023-07-20T11:19:14;94156.63;;;31.82;41.31
6680;BME280;3376;42.664;23.346;2023-07-20T11:21:43;94152.06;;;32.00;40.90
6680;BME280;3376;42.664;23.346;2023-07-20T11:24:10;94151.91;;;32.05;40.41
6680;BME280;3376;42.664;23.346;2023-07-20T11:26:48;94142.56;;;32.11;40.99
6680;BME280;3376;42.664;23.346;2023-07-20T11:29:16;94147.28;;;32.31;40.70
6680;BME280;3376;42.664;23.346;2023-07-20T11:31:44;94072.28;;;31.80;41.36
6680;BME280;3376;42.664;23.346;2023-07-20T11:34:12;94141.69;;;32.62;40.62
6680;BME280;3376;42.664;23.346;2023-07-20T11:36:40;94140.09;;;32.98;40.83
6680;BME280;3376;42.664;23.346;2023-07-20T11:39:08;94136.59;;;33.06;39.71
6680;BME280;3376;42.664;23.346;2023-07-20T11:41:35;94115.34;;;33.22;38.91
6680;BME280;3376;42.664;23.346;2023-07-20T11:44:05;94106.75;;;33.28;38.75
6680;BME280;3376;42.664;23.346;2023-07-20T11:46:33;94119.91;;;33.51;38.86
6680;BME280;3376;42.664;23.346;2023-07-20T11:49:00;94114.56;;;33.42;39.32
6680;BME280;3376;42.664;23.346;2023-07-20T11:51:27;94118.44;;;33.53;38.81
6680;BME280;3376;42.664;23.346;2023-07-20T11:53:55;94113.97;;;33.37;38.97
6680;BME280;3376;42.664;23.346;2023-07-20T11:56:23;94112.72;;;33.55;39.00
6680;BME280;3376;42.664;23.346;2023-07-20T11:58:50;94087.56;;;33.39;38.77
6680;BME280;3376;42.664;23.346;2023-07-20T12:01:18;94101.09;;;33.51;39.67
6680;BME280;3376;42.664;23.346;2023-07-20T12:03:47;94101.56;;;33.53;39.36
6680;BME280;3376;42.664;23.346;2023-07-20T12:06:14;94106.53;;;33.63;39.66
6680;BME280;3376;42.664;23.346;2023-07-20T12:08:42;94098.47;;;33.63;39.16
6680;BME280;3376;42.664;23.346;2023-07-20T12:11:09;94101.56;;;33.53;38.30
6680;BME280;3376;42.664;23.346;2023-07-20T12:13:38;94102.84;;;33.47;38.61
6680;BME280;3376;42.664;23.346;2023-07-20T12:16:26;94093.41;;;33.41;38.42
6680;BME280;3376;42.664;23.346;2023-07-20T12:18:59;94090.88;;;33.44;38.36
6680;BME280;3376;42.664;23.346;2023-07-20T12:21:26;94085.88;;;33.55;37.61
6680;BME280;3376;42.664;23.346;2023-07-20T12:23:56;94078.41;;;33.60;36.40
6680;BME280;3376;42.664;23.346;2023-07-20T12:26:23;94090.53;;;33.46;35.38
6680;BME280;3376;42.664;23.346;2023-07-20T12:28:51;94086.72;;;33.47;35.79
6680;BME280;3376;42.664;23.346;2023-07-20T12:31:18;94088.78;;;33.41;36.07
6680;BME280;3376;42.664;23.346;2023-07-20T12:33:48;94084.28;;;33.33;35.83
6680;BME280;3376;42.664;23.346;2023-07-20T12:36:14;94086.63;;;33.34;35.57
6680;BME280;3376;42.664;23.346;2023-07-20T12:38:42;94077.28;;;33.41;35.16
6680;BME280;3376;42.664;23.346;2023-07-20T12:41:10;94083.50;;;33.32;35.05
6680;BME280;3376;42.664;23.346;2023-07-20T12:43:39;94083.88;;;33.22;34.96
6680;BME280;3376;42.664;23.346;2023-07-20T12:46:06;94073.72;;;33.28;34.98
6680;BME280;3376;42.664;23.346;2023-07-20T12:48:33;94044.97;;;33.28;33.92
6680;BME280;3376;42.664;23.346;2023-07-20T12:51:01;94080.91;;;33.45;33.90
6680;BME280;3376;42.664;23.346;2023-07-20T12:53:28;94082.66;;;33.41;32.32
6680;BME280;3376;42.664;23.346;2023-07-20T12:55:55;94069.56;;;33.39;31.65
6680;BME280;3376;42.664;23.346;2023-07-20T12:58:22;94075.19;;;33.46;32.40
6680;BME280;3376;42.664;23.346;2023-07-20T13:00:49;94068.38;;;33.28;32.63
6680;BME280;3376;42.664;23.346;2023-07-20T13:03:16;94074.25;;;33.21;33.28
6680;BME280;3376;42.664;23.346;2023-07-20T13:05:44;94053.56;;;33.22;33.94
6680;BME280;3376;42.664;23.346;2023-07-20T13:08:13;94065.75;;;33.40;33.25
6680;BME280;3376;42.664;23.346;2023-07-20T13:10:39;94068.59;;;33.44;33.75
6680;BME280;3376;42.664;23.346;2023-07-20T13:13:07;94061.94;;;33.41;33.78
6680;BME280;3376;42.664;23.346;2023-07-20T13:15:42;94061.44;;;33.27;34.56
6680;BME280;3376;42.664;23.346;2023-07-20T13:18:08;94064.81;;;33.36;34.48
6680;BME280;3376;42.664;23.346;2023-07-20T13:20:35;94035.75;;;33.17;34.38
6680;BME280;3376;42.664;23.346;2023-07-20T13:23:02;94064.06;;;33.36;34.52